createdAt,value
2022-10-02T00:00:13.875Z,101338.38
2022-10-02T00:03:10.096Z,101288.06
2022-10-02T00:06:34.289Z,101295.34
2022-10-02T00:09:44.051Z,101337.19
2022-10-02T00:12:27.078Z,101341.75
2022-10-02T00:15:01.808Z,101252.53
2022-10-02T00:17:38.223Z,101307.88
2022-10-02T00:20:13.622Z,101317.59
2022-10-02T00:23:06.232Z,101344.91
2022-10-02T00:25:33.226Z,101340.28
2022-10-02T00:28:28.233Z,101340.13
2022-10-02T00:31:01.033Z,101349.31
2022-10-02T00:33:45.415Z,101322.66
2022-10-02T00:36:26.933Z,101343.94
2022-10-02T00:39:04.664Z,101351.53
2022-10-02T00:41:34.525Z,101350.38
2022-10-02T00:44:01.300Z,101342.66
2022-10-02T00:47:13.168Z,101344.44
2022-10-02T00:49:46.138Z,101339.19
2022-10-02T00:52:35.448Z,101318.28
2022-10-02T00:55:20.819Z,101359.72
2022-10-02T00:58:35.045Z,101360.56
2022-10-02T01:01:11.932Z,101346.50
2022-10-02T01:04:05.109Z,101332.63
2022-10-02T01:07:06.075Z,101325.00
2022-10-02T01:10:07.101Z,101296.50
2022-10-02T01:12:49.526Z,101333.31
2022-10-02T01:15:20.456Z,101341.44
2022-10-02T01:17:53.401Z,101300.06
2022-10-02T01:20:26.428Z,101346.06
2022-10-02T01:23:16.087Z,101356.13
2022-10-02T01:25:43.663Z,101337.75
2022-10-02T01:28:11.833Z,101352.31
2022-10-02T01:30:43.166Z,101248.47
2022-10-02T01:33:12.926Z,101337.50
2022-10-02T01:35:40.598Z,101314.25
2022-10-02T01:38:11.266Z,101311.81
2022-10-02T01:40:58.067Z,101347.66
2022-10-02T01:43:46.140Z,101331.25
2022-10-02T01:46:32.694Z,101342.28
2022-10-02T01:49:11.883Z,101339.81
2022-10-02T01:51:49.150Z,101355.44
2022-10-02T01:54:38.158Z,101270.50
2022-10-02T01:57:51.081Z,101336.44
2022-10-02T02:01:18.132Z,101330.13
2022-10-02T02:04:28.081Z,101338.38
2022-10-02T02:07:45.986Z,101264.09
2022-10-02T02:10:26.749Z,101334.44
2022-10-02T02:13:02.538Z,101345.03
2022-10-02T02:15:39.211Z,101315.56
2022-10-02T02:18:21.244Z,101350.09
2022-10-02T02:20:53.394Z,101245.94
2022-10-02T02:23:26.641Z,101178.09
2022-10-02T02:25:59.636Z,101338.16
2022-10-02T02:28:29.540Z,101335.25
2022-10-02T02:30:59.036Z,101261.50
2022-10-02T02:33:32.057Z,101351.09
2022-10-02T02:36:04.701Z,101313.72
2022-10-02T02:38:36.685Z,101343.97
2022-10-02T02:41:08.839Z,101338.84
2022-10-02T02:43:44.004Z,101338.94
2022-10-02T02:46:21.024Z,101348.56
2022-10-02T02:49:07.031Z,101327.53
2022-10-02T02:51:54.141Z,101292.09
2022-10-02T02:55:11.139Z,101371.06
2022-10-02T02:58:23.149Z,101288.59
2022-10-02T03:01:24.168Z,101369.72
2022-10-02T03:04:28.183Z,101302.88
2022-10-02T03:07:15.591Z,101316.72
2022-10-02T03:09:52.961Z,101369.88
2022-10-02T03:12:50.659Z,101365.44
2022-10-02T03:15:43.889Z,101355.50
2022-10-02T03:18:26.024Z,101373.19
2022-10-02T03:21:10.028Z,101367.34
2022-10-02T03:24:01.965Z,101368.41
2022-10-02T03:26:47.873Z,101311.44
2022-10-02T03:29:25.437Z,101392.94
2022-10-02T03:31:54.242Z,101241.59
2022-10-02T03:34:22.019Z,101373.53
2022-10-02T03:36:49.129Z,101406.41
2022-10-02T03:39:31.227Z,101392.94
2022-10-02T03:41:58.405Z,101345.06
2022-10-02T03:44:25.399Z,101320.59
2022-10-02T03:46:52.487Z,101319.91
2022-10-02T03:49:19.438Z,101402.00
2022-10-02T03:52:06.171Z,101286.09
2022-10-02T03:55:15.150Z,101425.41
2022-10-02T03:58:24.170Z,101411.16
2022-10-02T04:01:32.193Z,101434.75
2022-10-02T04:04:45.151Z,101397.28
2022-10-02T04:07:26.969Z,101430.78
2022-10-02T04:10:14.801Z,101425.78
2022-10-02T04:12:57.760Z,101436.63
2022-10-02T04:15:41.211Z,101457.22
2022-10-02T04:18:22.659Z,101381.44
2022-10-02T04:20:58.384Z,101378.59
2022-10-02T04:23:44.069Z,101375.88
2022-10-02T04:26:17.880Z,101393.09
2022-10-02T04:28:51.491Z,101450.91
2022-10-02T04:31:18.389Z,101452.47
2022-10-02T04:33:45.292Z,101376.38
2022-10-02T04:36:34.723Z,101466.19
2022-10-02T04:39:04.919Z,101465.00
2022-10-02T04:41:52.021Z,101454.63
2022-10-02T04:44:52.339Z,101445.63
2022-10-02T04:47:46.450Z,101455.78
2022-10-02T04:51:02.251Z,101442.31
2022-10-02T04:54:30.181Z,101475.44
2022-10-02T04:58:02.194Z,101465.94
2022-10-02T05:01:15.234Z,101432.66
2022-10-02T05:04:35.181Z,101463.16
2022-10-02T05:07:30.963Z,101447.63
2022-10-02T05:10:02.109Z,101388.50
2022-10-02T05:12:42.001Z,101436.19
2022-10-02T05:15:46.033Z,101448.59
2022-10-02T05:18:40.544Z,101471.34
2022-10-02T05:21:29.228Z,101446.97
2022-10-02T05:24:21.230Z,101497.47
2022-10-02T05:27:30.228Z,101430.31
2022-10-02T05:30:08.844Z,101469.03
2022-10-02T05:32:44.384Z,101501.69
2022-10-02T05:35:37.448Z,101504.41
2022-10-02T05:38:29.156Z,101518.47
2022-10-02T05:41:28.310Z,101517.75
2022-10-02T05:44:28.192Z,101525.75
2022-10-02T05:47:27.026Z,101524.66
2022-10-02T05:50:01.272Z,101471.97
2022-10-02T05:52:58.238Z,101507.84
2022-10-02T05:56:25.222Z,101463.66
2022-10-02T05:59:43.970Z,101530.34
2022-10-02T06:02:50.220Z,101474.78
2022-10-02T06:06:02.195Z,101530.91
2022-10-02T06:08:52.754Z,101486.16
2022-10-02T06:11:46.231Z,101449.84
2022-10-02T06:14:39.383Z,101529.47
2022-10-02T06:17:13.649Z,101528.84
2022-10-02T06:20:03.856Z,101542.75
2022-10-02T06:22:58.737Z,101551.19
2022-10-02T06:26:07.253Z,101562.41
2022-10-02T06:28:36.838Z,101556.00
2022-10-02T06:31:39.397Z,101548.78
2022-10-02T06:34:12.214Z,101559.56
2022-10-02T06:36:51.558Z,101528.41
2022-10-02T06:39:57.285Z,101544.91
2022-10-02T06:42:53.684Z,101498.03
2022-10-02T06:45:21.267Z,101571.78
2022-10-02T06:48:05.431Z,101573.09
2022-10-02T06:50:44.678Z,101581.41
2022-10-02T06:53:37.251Z,101567.81
2022-10-02T06:57:07.244Z,101541.78
2022-10-02T07:00:00.324Z,101575.88
2022-10-02T07:02:52.005Z,101480.78
2022-10-02T07:05:50.161Z,101565.19
2022-10-02T07:08:25.985Z,101563.09
2022-10-02T07:11:01.779Z,101528.06
2022-10-02T07:14:04.304Z,101592.97
2022-10-02T07:16:38.779Z,101599.97
2022-10-02T07:19:38.977Z,101598.31
2022-10-02T07:22:43.803Z,101594.22
2022-10-02T07:25:23.738Z,101601.72
2022-10-02T07:28:09.025Z,101606.16
2022-10-02T07:30:56.159Z,101593.91
2022-10-02T07:33:33.984Z,101554.38
2022-10-02T07:36:27.246Z,101579.34
2022-10-02T07:39:53.278Z,101589.91
2022-10-02T07:42:55.859Z,101579.13
2022-10-02T07:45:37.995Z,101569.03
2022-10-02T07:48:04.977Z,101566.78
2022-10-02T07:51:11.287Z,101565.34
2022-10-02T07:54:02.279Z,101520.28
2022-10-02T07:56:30.703Z,101554.91
2022-10-02T07:59:04.540Z,101583.19
2022-10-02T08:01:35.674Z,101586.97
2022-10-02T08:04:09.516Z,101596.19
2022-10-02T08:06:38.108Z,101570.44
2022-10-02T08:09:31.631Z,101590.75
2022-10-02T08:12:09.418Z,101548.91
2022-10-02T08:14:43.261Z,101590.41
2022-10-02T08:17:28.983Z,101579.75
2022-10-02T08:20:03.319Z,101527.63
2022-10-02T08:22:44.291Z,101570.56
2022-10-02T08:25:22.806Z,101569.81
2022-10-02T08:28:10.502Z,101583.91
2022-10-02T08:30:57.325Z,101561.59
2022-10-02T08:33:39.069Z,101580.66
2022-10-02T08:36:38.760Z,101596.13
2022-10-02T08:40:07.947Z,101594.88
2022-10-02T08:43:26.337Z,101590.09
2022-10-02T08:46:56.420Z,101593.63
2022-10-02T08:49:49.599Z,101522.53
2022-10-02T08:52:40.826Z,101590.22
2022-10-02T08:55:10.808Z,101586.25
2022-10-02T08:57:56.818Z,101583.41
2022-10-02T09:00:37.402Z,101575.16
2022-10-02T09:03:07.706Z,101582.84
2022-10-02T09:06:16.239Z,101573.16
2022-10-02T09:09:09.861Z,101535.25
2022-10-02T09:12:05.854Z,101586.84
2022-10-02T09:14:38.800Z,101582.22
2022-10-02T09:17:36.732Z,101564.38
2022-10-02T09:20:09.779Z,101556.44
2022-10-02T09:22:39.614Z,101562.78
2022-10-02T09:25:36.164Z,101542.31
2022-10-02T09:28:50.941Z,101520.00
2022-10-02T09:32:03.315Z,101503.25
2022-10-02T09:35:14.411Z,101528.88
2022-10-02T09:38:39.225Z,101505.63
2022-10-02T09:41:46.571Z,101522.19
2022-10-02T09:44:49.173Z,101504.06
2022-10-02T09:47:37.017Z,101544.34
2022-10-02T09:50:36.355Z,101546.19
2022-10-02T09:53:39.773Z,101547.00
2022-10-02T09:56:25.739Z,101547.00
2022-10-02T09:59:11.046Z,101555.16
2022-10-02T10:02:15.797Z,101558.22
2022-10-02T10:05:04.584Z,101538.28
2022-10-02T10:07:34.044Z,101549.91
2022-10-02T10:10:23.591Z,101527.84
2022-10-02T10:12:56.432Z,101541.16
2022-10-02T10:16:02.671Z,101529.91
2022-10-02T10:19:15.360Z,101459.28
2022-10-02T10:22:05.141Z,101416.69
2022-10-02T10:25:10.836Z,101490.47
2022-10-02T10:28:00.707Z,101499.31
2022-10-02T10:30:46.594Z,101493.91
2022-10-02T10:33:24.357Z,101494.78
2022-10-02T10:37:01.440Z,101482.25
2022-10-02T10:40:06.994Z,101478.88
2022-10-02T10:43:08.302Z,101495.63
2022-10-02T10:46:24.402Z,101495.69
2022-10-02T10:49:41.540Z,101472.72
2022-10-02T10:52:17.492Z,101489.47
2022-10-02T10:55:06.099Z,101488.69
2022-10-02T10:57:36.865Z,101474.41
2022-10-02T11:00:41.853Z,101479.84
2022-10-02T11:03:27.867Z,101478.03
2022-10-02T11:06:16.823Z,101470.94
2022-10-02T11:09:16.999Z,101470.94
2022-10-02T11:11:52.991Z,101470.88
2022-10-02T11:14:49.446Z,101467.38
2022-10-02T11:18:01.427Z,101457.56
2022-10-02T11:20:44.122Z,101456.75
2022-10-02T11:23:14.016Z,101455.78
2022-10-02T11:25:59.693Z,101447.91
2022-10-02T11:28:56.363Z,101413.28
2022-10-02T11:32:05.655Z,101439.91
2022-10-02T11:34:52.607Z,101439.91
2022-10-02T11:38:03.630Z,101431.91
2022-10-02T11:40:53.104Z,101430.09
2022-10-02T11:43:33.211Z,101423.06
2022-10-02T11:46:12.471Z,101432.81
2022-10-02T11:48:45.436Z,101424.84
2022-10-02T11:51:50.994Z,101416.84
2022-10-02T11:54:23.841Z,101416.84
2022-10-02T11:57:09.502Z,101414.19
2022-10-02T11:59:51.439Z,101366.28
2022-10-02T12:02:39.020Z,101412.28
2022-10-02T12:05:44.783Z,101413.97
2022-10-02T12:08:47.525Z,101413.84
2022-10-02T12:11:51.479Z,101407.53
2022-10-02T12:14:44.195Z,101391.09
2022-10-02T12:17:33.171Z,101376.84
2022-10-02T12:20:37.116Z,101376.91
2022-10-02T12:23:47.826Z,101363.63
2022-10-02T12:27:00.933Z,101361.72
2022-10-02T12:29:41.124Z,101335.00
2022-10-02T12:32:11.230Z,101348.16
2022-10-02T12:35:17.451Z,101285.19
2022-10-02T12:38:14.044Z,101341.91
2022-10-02T12:40:55.382Z,101316.06
2022-10-02T12:43:54.573Z,101318.63
2022-10-02T12:46:51.824Z,101316.84
2022-10-02T12:49:45.476Z,101301.81
2022-10-02T12:52:44.261Z,101323.13
2022-10-02T12:55:49.527Z,101322.22
2022-10-02T12:59:06.944Z,101310.72
2022-10-02T13:02:05.806Z,101303.78
2022-10-02T13:05:24.497Z,101311.78
2022-10-02T13:08:49.495Z,101232.09
2022-10-02T13:11:36.332Z,101294.00
2022-10-02T13:14:31.283Z,101293.13
2022-10-02T13:17:14.104Z,101281.50
2022-10-02T13:19:53.041Z,101261.16
2022-10-02T13:22:25.178Z,101288.78
2022-10-02T13:25:17.836Z,101284.41
2022-10-02T13:28:13.606Z,101271.84
2022-10-02T13:31:48.589Z,101264.53
2022-10-02T13:34:48.777Z,101270.66
2022-10-02T13:37:29.182Z,101276.91
2022-10-02T13:40:18.050Z,101275.22
2022-10-02T13:43:04.339Z,101267.09
2022-10-02T13:45:45.845Z,101211.78
2022-10-02T13:48:51.547Z,101236.50
2022-10-02T13:51:41.534Z,101249.75
2022-10-02T13:54:34.540Z,101240.16
2022-10-02T13:58:10.521Z,101245.34
2022-10-02T14:01:22.577Z,101094.78
2022-10-02T14:04:24.872Z,101231.09
2022-10-02T14:07:23.937Z,101215.09
2022-10-02T14:10:19.271Z,101171.66
2022-10-02T14:13:15.051Z,101220.41
2022-10-02T14:15:45.143Z,101216.94
2022-10-02T14:18:39.304Z,101210.84
2022-10-02T14:21:18.071Z,101208.94
2022-10-02T14:25:11.106Z,101142.38
2022-10-02T14:28:11.539Z,101193.56
2022-10-02T14:31:21.610Z,101190.09
2022-10-02T14:34:26.946Z,101185.66
2022-10-02T14:37:24.640Z,101188.28
2022-10-02T14:39:55.641Z,101181.16
2022-10-02T14:42:47.327Z,101180.34
2022-10-02T14:45:32.704Z,101175.97
2022-10-02T14:48:11.712Z,101175.06
2022-10-02T14:51:21.573Z,101174.97
2022-10-02T14:54:59.558Z,101172.00
2022-10-02T14:58:28.548Z,101173.75
2022-10-02T15:01:34.825Z,101184.19
2022-10-02T15:05:00.058Z,101170.22
2022-10-02T15:08:04.590Z,101137.50
2022-10-02T15:10:49.277Z,101168.28
2022-10-02T15:13:44.678Z,101155.22
2022-10-02T15:16:41.971Z,101108.47
2022-10-02T15:19:21.994Z,101112.00
2022-10-02T15:22:11.586Z,101125.94
2022-10-02T15:25:20.565Z,101091.81
2022-10-02T15:28:51.436Z,101142.00
2022-10-02T15:31:37.057Z,101136.47
2022-10-02T15:34:34.585Z,101137.41
2022-10-02T15:37:30.463Z,101131.22
2022-10-02T15:40:44.940Z,101085.38
2022-10-02T15:43:52.579Z,101120.81
2022-10-02T15:47:04.001Z,101129.75
2022-10-02T15:50:02.635Z,101119.81
2022-10-02T15:53:24.769Z,101119.03
2022-10-02T15:56:27.609Z,101112.13
2022-10-02T16:00:02.651Z,101060.09
2022-10-02T16:03:35.638Z,101108.66
2022-10-02T16:06:33.231Z,101103.19
2022-10-02T16:09:28.236Z,101074.16
2022-10-02T16:12:22.539Z,101096.44
2022-10-02T16:14:57.559Z,101092.13
2022-10-02T16:20:57.282Z,101072.81
2022-10-02T16:24:11.169Z,101097.63
2022-10-02T16:27:20.631Z,101108.31
2022-10-02T16:30:27.636Z,101065.03
2022-10-02T16:33:10.442Z,101098.63
2022-10-02T16:35:43.866Z,101096.91
2022-10-02T16:38:22.491Z,101103.16
2022-10-02T16:40:58.849Z,101047.41
2022-10-02T16:43:58.593Z,101099.63
2022-10-02T16:47:43.639Z,101097.00
2022-10-02T16:50:59.646Z,101098.78
2022-10-02T16:54:32.619Z,101062.53
2022-10-02T16:57:39.644Z,101080.25
2022-10-02T17:00:34.210Z,101098.81
2022-10-02T17:03:15.294Z,101007.66
2022-10-02T17:05:57.697Z,101095.25
2022-10-02T17:09:12.634Z,101091.69
2022-10-02T17:12:26.054Z,101093.44
2022-10-02T17:15:25.509Z,101091.63
2022-10-02T17:18:01.213Z,101093.38
2022-10-02T17:20:43.413Z,101092.47
2022-10-02T17:23:35.651Z,101072.06
2022-10-02T17:26:28.431Z,101087.94
2022-10-02T17:29:23.855Z,101094.09
2022-10-02T17:31:51.915Z,101087.03
2022-10-02T17:34:25.064Z,101095.84
2022-10-02T17:37:02.480Z,101094.94
2022-10-02T17:39:52.703Z,101046.25
2022-10-02T17:42:51.940Z,101094.88
2022-10-02T17:45:58.749Z,101027.44
2022-10-02T17:48:54.491Z,101015.91
2022-10-02T17:51:53.719Z,101091.31
2022-10-02T17:55:30.666Z,101069.94
2022-10-02T17:58:33.209Z,101097.34
2022-10-02T18:01:23.874Z,101068.16
2022-10-02T18:04:29.146Z,101099.16
2022-10-02T18:07:05.099Z,101089.47
2022-10-02T18:09:44.582Z,101097.41
2022-10-02T18:12:14.534Z,101102.78
2022-10-02T18:15:18.979Z,101061.19
2022-10-02T18:18:00.418Z,101097.31
2022-10-02T18:20:43.484Z,101083.13
2022-10-02T18:23:36.040Z,101111.56
2022-10-02T18:26:14.406Z,101109.81
2022-10-02T18:29:05.303Z,101116.81
2022-10-02T18:32:02.965Z,101114.13
2022-10-02T18:35:04.686Z,101114.97
2022-10-02T18:37:51.321Z,101114.03
2022-10-02T18:40:29.199Z,101109.44
2022-10-02T18:43:39.691Z,101092.56
2022-10-02T18:46:53.578Z,101077.50
2022-10-02T18:49:48.788Z,101116.53
2022-10-02T18:52:41.703Z,101108.50
2022-10-02T18:56:03.273Z,101099.34
2022-10-02T18:59:42.136Z,101119.06
2022-10-02T19:02:21.449Z,101119.16
2022-10-02T19:05:17.928Z,101055.31
2022-10-02T19:07:59.461Z,101126.09
2022-10-02T19:11:02.726Z,101109.34
2022-10-02T19:14:03.733Z,101085.41
2022-10-02T19:16:59.209Z,101104.84
2022-10-02T19:19:28.211Z,101128.69
2022-10-02T19:22:29.431Z,101128.00
2022-10-02T19:25:05.338Z,101118.28
2022-10-02T19:27:56.775Z,101092.53
2022-10-02T19:30:41.358Z,101104.06
2022-10-02T19:33:22.315Z,101034.09
2022-10-02T19:35:49.820Z,101112.16
2022-10-02T19:38:23.137Z,101139.66
2022-10-02T19:40:53.120Z,101145.81
2022-10-02T19:43:43.744Z,101143.03
2022-10-02T19:46:33.232Z,101095.84
2022-10-02T19:49:01.847Z,101124.22
2022-10-02T19:51:28.856Z,101090.47
2022-10-02T19:54:01.495Z,101170.22
2022-10-02T19:56:54.754Z,101156.84
2022-10-02T19:59:42.025Z,101156.91
2022-10-02T20:02:41.694Z,101131.97
2022-10-02T20:05:38.763Z,101162.03
2022-10-02T20:08:23.101Z,101192.19
2022-10-02T20:11:05.525Z,101150.50
2022-10-02T20:13:43.680Z,101125.44
2022-10-02T20:16:35.800Z,101191.81
2022-10-02T20:19:04.964Z,101101.28
2022-10-02T20:22:24.767Z,101163.41
2022-10-02T20:25:38.772Z,101177.53
2022-10-02T20:28:48.287Z,101171.31
2022-10-02T20:31:19.245Z,101179.25
2022-10-02T20:33:59.216Z,101137.41
2022-10-02T20:36:33.096Z,101108.22
2022-10-02T20:39:11.326Z,101166.81
2022-10-02T20:42:15.781Z,101162.41
2022-10-02T20:44:56.472Z,101067.31
2022-10-02T20:47:53.785Z,101158.53
2022-10-02T20:50:27.224Z,101179.84
2022-10-02T20:53:39.799Z,101180.28
2022-10-02T20:56:39.773Z,101178.34
2022-10-02T20:59:58.806Z,101169.31
2022-10-02T21:02:34.859Z,101173.00
2022-10-02T21:05:31.301Z,101165.91
2022-10-02T21:08:26.882Z,101170.31
2022-10-02T21:11:23.003Z,101180.75
2022-10-02T21:14:21.786Z,101182.47
2022-10-02T21:17:54.825Z,101165.44
2022-10-02T21:21:18.607Z,101153.66
2022-10-02T21:24:01.414Z,101184.59
2022-10-02T21:26:48.746Z,101189.91
2022-10-02T21:29:54.687Z,101172.94
2022-10-02T21:32:51.130Z,101120.25
2022-10-02T21:35:40.486Z,101184.91
2022-10-02T21:38:32.469Z,101177.06
2022-10-02T21:41:19.685Z,101181.00
2022-10-02T21:45:03.615Z,101178.34
2022-10-02T21:48:10.531Z,101148.72
2022-10-02T21:51:03.838Z,101103.28
2022-10-02T21:54:13.041Z,101183.19
2022-10-02T21:57:07.367Z,101177.97
2022-10-02T21:59:46.283Z,101186.69
2022-10-02T22:02:16.655Z,101200.91
2022-10-02T22:05:21.711Z,101185.09
2022-10-02T22:08:08.177Z,101092.53
2022-10-02T22:10:47.662Z,101176.88
2022-10-02T22:13:50.860Z,101112.75
2022-10-02T22:17:17.886Z,101170.59
2022-10-02T22:20:15.048Z,101180.31
2022-10-02T22:23:14.785Z,101186.41
2022-10-02T22:26:12.680Z,101174.06
2022-10-02T22:28:45.490Z,101167.75
2022-10-02T22:31:43.155Z,101174.94
2022-10-02T22:34:10.195Z,101200.59
2022-10-02T22:37:05.025Z,101202.53
2022-10-02T22:39:43.385Z,101195.59
2022-10-02T22:42:37.860Z,101199.00
2022-10-02T22:45:56.892Z,101177.84
2022-10-02T22:48:45.631Z,101157.19
2022-10-02T22:51:59.863Z,101198.50
2022-10-02T22:55:12.815Z,101203.19
2022-10-02T22:58:16.085Z,101203.19
2022-10-02T23:01:08.427Z,101200.31
2022-10-02T23:03:56.534Z,101188.00
2022-10-02T23:06:30.661Z,101188.13
2022-10-02T23:09:39.874Z,101186.38
2022-10-02T23:12:13.910Z,101184.34
2022-10-02T23:14:46.904Z,101178.06
2022-10-02T23:17:35.187Z,101143.97
2022-10-02T23:20:12.051Z,101191.03
2022-10-02T23:22:51.466Z,101185.75
2022-10-02T23:25:43.225Z,101206.78
2022-10-02T23:28:29.449Z,101205.59
2022-10-02T23:31:22.972Z,101197.63
2022-10-02T23:34:10.695Z,101129.28
2022-10-02T23:37:13.807Z,101151.66
2022-10-02T23:39:54.195Z,101188.16
2022-10-02T23:42:48.893Z,101194.19
2022-10-02T23:45:56.895Z,101153.88
2022-10-02T23:48:39.121Z,101198.50
2022-10-02T23:51:44.874Z,101193.56
2022-10-02T23:54:50.799Z,101208.59
2022-10-02T23:57:35.919Z,101200.69
